createdAt,value
2019-05-26T00:00:21.287Z,33.65
2019-05-26T00:02:50.889Z,31.17
2019-05-26T00:05:20.467Z,30.55
2019-05-26T00:07:50.102Z,27.93
2019-05-26T00:10:19.825Z,26.27
2019-05-26T00:12:49.414Z,30.30
2019-05-26T00:15:19.559Z,39.67
2019-05-26T00:17:49.558Z,37.10
2019-05-26T00:20:20.054Z,39.83
2019-05-26T00:22:49.629Z,39.18
2019-05-26T00:25:19.255Z,38.42
2019-05-26T00:27:48.772Z,35.25
2019-05-26T00:30:18.436Z,40.63
2019-05-26T00:32:49.011Z,42.05
2019-05-26T00:35:18.551Z,37.50
2019-05-26T00:37:50.384Z,41.58
2019-05-26T00:40:19.800Z,36.95
2019-05-26T00:42:49.418Z,40.73
2019-05-26T00:45:19.136Z,37.53
2019-05-26T00:47:48.656Z,39.95
2019-05-26T00:50:18.276Z,39.70
2019-05-26T00:52:47.831Z,38.95
2019-05-26T00:55:17.733Z,32.80
2019-05-26T00:57:47.340Z,33.88
2019-05-26T01:00:18.403Z,34.48
2019-05-26T01:02:47.934Z,33.10
2019-05-26T01:05:17.602Z,33.30
2019-05-26T01:07:47.137Z,37.30
2019-05-26T01:10:17.150Z,36.05
2019-05-26T01:12:46.803Z,39.15
2019-05-26T01:15:16.496Z,42.50
2019-05-26T01:17:46.151Z,36.20
2019-05-26T01:20:15.870Z,42.25
2019-05-26T01:22:46.546Z,40.45
2019-05-26T01:25:16.190Z,39.15
2019-05-26T01:27:45.771Z,44.48
2019-05-26T01:30:15.557Z,45.78
2019-05-26T01:32:45.211Z,44.95
2019-05-26T01:35:14.735Z,45.40
2019-05-26T01:37:44.590Z,43.17
2019-05-26T01:40:14.231Z,47.73
2019-05-26T01:42:43.899Z,50.15
2019-05-26T01:45:13.555Z,45.30
2019-05-26T01:47:43.123Z,42.53
2019-05-26T01:50:12.766Z,49.48
2019-05-26T01:52:42.272Z,49.05
2019-05-26T01:55:11.890Z,49.20
2019-05-26T01:57:41.466Z,51.70
2019-05-26T02:00:11.069Z,46.63
2019-05-26T02:02:40.630Z,49.45
2019-05-26T02:05:10.721Z,51.05
2019-05-26T02:07:40.443Z,55.38
2019-05-26T02:10:10.937Z,55.90
2019-05-26T02:12:40.689Z,48.05
2019-05-26T02:15:10.803Z,48.50
2019-05-26T02:17:40.310Z,50.73
2019-05-26T02:20:10.089Z,58.38
2019-05-26T02:22:40.063Z,52.80
2019-05-26T02:25:10.811Z,49.00
2019-05-26T02:27:40.429Z,49.08
2019-05-26T02:30:10.296Z,45.88
2019-05-26T02:32:40.249Z,49.67
2019-05-26T02:35:10.073Z,51.88
2019-05-26T02:37:39.927Z,48.30
2019-05-26T02:40:10.192Z,52.65
2019-05-26T02:42:39.762Z,51.37
2019-05-26T02:45:09.679Z,55.10
2019-05-26T02:47:39.267Z,56.05
2019-05-26T02:50:09.075Z,55.08
2019-05-26T02:52:38.659Z,55.60
2019-05-26T02:55:08.563Z,52.10
2019-05-26T02:57:38.114Z,52.90
2019-05-26T03:00:08.642Z,56.30
2019-05-26T03:02:38.195Z,54.93
2019-05-26T03:05:11.097Z,53.68
2019-05-26T03:07:42.488Z,55.35
2019-05-26T03:10:13.351Z,57.13
2019-05-26T03:12:43.558Z,57.10
2019-05-26T03:15:13.608Z,55.70
2019-05-26T03:17:43.183Z,52.58
2019-05-26T03:20:13.279Z,56.35
2019-05-26T03:22:43.138Z,52.43
2019-05-26T03:25:12.997Z,51.60
2019-05-26T03:27:42.956Z,49.88
2019-05-26T03:30:12.694Z,52.00
2019-05-26T03:32:42.549Z,54.08
2019-05-26T03:35:12.308Z,54.25
2019-05-26T03:37:41.873Z,53.60
2019-05-26T03:40:11.764Z,55.08
2019-05-26T03:42:41.607Z,51.68
2019-05-26T03:45:12.855Z,51.65
2019-05-26T03:47:42.382Z,51.50
2019-05-26T03:50:12.043Z,50.43
2019-05-26T03:52:41.577Z,51.42
2019-05-26T03:55:11.703Z,55.38
2019-05-26T03:57:41.361Z,51.98
2019-05-26T04:00:11.281Z,50.98
2019-05-26T04:02:41.206Z,54.55
2019-05-26T04:05:10.884Z,51.13
2019-05-26T04:07:40.410Z,53.90
2019-05-26T04:10:10.601Z,53.78
2019-05-26T04:12:40.670Z,50.73
2019-05-26T04:15:10.769Z,50.35
2019-05-26T04:17:40.467Z,48.10
2019-05-26T04:20:10.149Z,51.80
2019-05-26T04:22:39.719Z,49.63
2019-05-26T04:25:09.480Z,50.60
2019-05-26T04:27:39.041Z,47.25
2019-05-26T04:30:08.689Z,45.83
2019-05-26T04:32:38.318Z,47.35
2019-05-26T04:35:07.924Z,47.08
2019-05-26T04:37:37.549Z,46.15
2019-05-26T04:40:25.075Z,42.93
2019-05-26T04:42:38.474Z,47.53
2019-05-26T04:45:08.975Z,47.27
2019-05-26T04:47:38.970Z,47.27
2019-05-26T04:50:09.368Z,48.58
2019-05-26T04:52:39.452Z,46.00
2019-05-26T04:55:10.392Z,46.60
2019-05-26T04:57:40.388Z,44.75
2019-05-26T05:00:10.733Z,45.40
2019-05-26T05:02:40.735Z,44.53
2019-05-26T05:05:11.917Z,45.08
2019-05-26T05:07:42.016Z,44.23
2019-05-26T05:10:12.306Z,48.38
2019-05-26T05:12:42.235Z,47.20
2019-05-26T05:15:12.473Z,50.08
2019-05-26T05:17:42.096Z,46.00
2019-05-26T05:20:12.098Z,50.80
2019-05-26T05:22:42.194Z,49.95
2019-05-26T05:25:15.017Z,47.27
2019-05-26T05:27:44.168Z,47.78
2019-05-26T05:30:15.355Z,48.90
2019-05-26T05:32:45.503Z,48.68
2019-05-26T05:35:17.272Z,53.58
2019-05-26T05:37:47.394Z,53.33
2019-05-26T05:40:17.143Z,53.25
2019-05-26T05:42:47.197Z,51.98
2019-05-26T05:45:17.647Z,55.52
2019-05-26T05:47:47.690Z,53.83
2019-05-26T05:50:19.268Z,50.88
2019-05-26T05:52:49.244Z,48.02
2019-05-26T05:55:19.344Z,50.85
2019-05-26T05:57:49.430Z,47.70
2019-05-26T06:00:20.592Z,46.80
2019-05-26T06:02:50.708Z,51.53
2019-05-26T06:05:20.661Z,46.98
2019-05-26T06:07:50.686Z,50.08
2019-05-26T06:10:20.869Z,48.90
2019-05-26T06:12:50.904Z,46.55
2019-05-26T06:15:21.118Z,45.52
2019-05-26T06:17:51.190Z,50.33
2019-05-26T06:20:20.871Z,48.40
2019-05-26T06:22:50.764Z,48.63
2019-05-26T06:25:20.840Z,50.23
2019-05-26T06:27:51.077Z,50.43
2019-05-26T06:30:22.222Z,48.87
2019-05-26T06:32:52.299Z,49.25
2019-05-26T06:35:21.907Z,47.73
2019-05-26T06:37:51.911Z,50.23
2019-05-26T06:40:21.891Z,48.00
2019-05-26T06:42:51.845Z,48.30
2019-05-26T06:45:22.262Z,51.35
2019-05-26T06:47:51.954Z,49.18
2019-05-26T06:50:21.950Z,48.75
2019-05-26T06:52:51.980Z,48.98
2019-05-26T06:55:22.085Z,45.17
2019-05-26T06:57:51.694Z,46.45
2019-05-26T07:00:23.190Z,44.67
2019-05-26T07:02:53.409Z,41.77
2019-05-26T07:05:23.520Z,41.98
2019-05-26T07:07:53.608Z,39.92
2019-05-26T07:10:23.570Z,43.23
2019-05-26T07:12:53.586Z,40.60
2019-05-26T07:15:23.580Z,37.73
2019-05-26T07:17:53.567Z,42.27
2019-05-26T07:20:23.511Z,35.28
2019-05-26T07:22:53.450Z,33.75
2019-05-26T07:25:23.555Z,38.25
2019-05-26T07:27:53.494Z,36.10
2019-05-26T07:30:23.688Z,29.40
2019-05-26T07:32:53.787Z,31.27
2019-05-26T07:35:24.034Z,33.53
2019-05-26T07:37:54.154Z,31.45
2019-05-26T07:40:24.203Z,31.87
2019-05-26T07:42:54.043Z,28.27
2019-05-26T07:45:24.064Z,30.50
2019-05-26T07:47:54.026Z,30.37
2019-05-26T07:50:23.728Z,25.88
2019-05-26T07:52:53.601Z,28.70
2019-05-26T07:55:23.942Z,26.02
2019-05-26T07:57:54.008Z,27.62
2019-05-26T08:00:24.355Z,27.93
2019-05-26T08:02:54.339Z,35.78
2019-05-26T08:05:24.067Z,25.68
2019-05-26T08:07:53.577Z,27.13
2019-05-26T08:10:23.476Z,26.57
2019-05-26T08:12:53.085Z,25.97
2019-05-26T08:15:23.043Z,27.37
2019-05-26T08:17:52.757Z,23.77
2019-05-26T08:20:22.486Z,24.55
2019-05-26T08:22:52.363Z,27.22
2019-05-26T08:25:22.291Z,25.27
2019-05-26T08:27:52.268Z,34.92
2019-05-26T08:30:25.247Z,25.65
2019-05-26T08:32:56.055Z,22.15
2019-05-26T08:35:26.044Z,20.35
2019-05-26T08:37:56.068Z,21.85
2019-05-26T08:40:26.109Z,22.07
2019-05-26T08:42:56.108Z,21.65
2019-05-26T08:45:26.079Z,21.15
2019-05-26T08:47:56.087Z,19.45
2019-05-26T08:50:26.097Z,18.57
2019-05-26T08:52:56.275Z,22.35
2019-05-26T08:55:26.218Z,22.05
2019-05-26T08:57:56.319Z,19.75
2019-05-26T09:00:26.478Z,18.57
2019-05-26T09:02:56.543Z,22.07
2019-05-26T09:05:26.521Z,22.98
2019-05-26T09:07:56.603Z,24.20
2019-05-26T09:10:26.621Z,21.37
2019-05-26T09:13:01.550Z,22.35
2019-05-26T09:15:28.378Z,20.20
2019-05-26T09:17:58.604Z,19.40
2019-05-26T09:20:28.707Z,20.77
2019-05-26T09:22:58.879Z,21.05
2019-05-26T09:25:28.959Z,23.50
2019-05-26T09:27:59.088Z,21.95
2019-05-26T09:30:30.022Z,21.55
2019-05-26T09:33:00.083Z,21.60
2019-05-26T09:35:30.035Z,19.98
2019-05-26T09:38:00.248Z,55.38
2019-05-26T09:40:30.261Z,20.17
2019-05-26T09:43:13.293Z,16.32
2019-05-26T09:45:32.107Z,17.20
2019-05-26T09:48:02.251Z,18.25
2019-05-26T09:50:32.284Z,16.62
2019-05-26T09:53:02.142Z,17.43
2019-05-26T09:55:32.177Z,21.80
2019-05-26T09:58:02.183Z,16.97
2019-05-26T10:00:32.152Z,16.50
2019-05-26T10:03:02.171Z,15.48
2019-05-26T10:05:31.930Z,19.87
2019-05-26T10:08:01.936Z,17.15
2019-05-26T10:10:31.910Z,14.87
2019-05-26T10:13:02.986Z,14.38
2019-05-26T10:15:33.063Z,15.38
2019-05-26T10:18:03.022Z,14.13
2019-05-26T10:20:32.387Z,20.63
2019-05-26T10:23:02.019Z,21.67
2019-05-26T10:25:33.062Z,18.95
2019-05-26T10:28:02.798Z,12.83
2019-05-26T10:30:32.502Z,14.57
2019-05-26T10:33:02.519Z,13.80
2019-05-26T10:35:32.388Z,14.10
2019-05-26T10:38:01.799Z,11.23
2019-05-26T10:40:31.414Z,9.93
2019-05-26T10:43:02.152Z,8.00
2019-05-26T10:45:34.261Z,12.77
2019-05-26T10:48:03.206Z,16.77
2019-05-26T10:50:32.994Z,10.97
2019-05-26T10:53:02.652Z,10.53
2019-05-26T10:55:32.307Z,14.77
2019-05-26T10:58:02.051Z,10.37
2019-05-26T11:00:33.119Z,11.13
2019-05-26T11:03:02.757Z,13.30
2019-05-26T11:05:31.975Z,9.87
2019-05-26T11:08:01.554Z,9.43
2019-05-26T11:10:32.490Z,11.43
2019-05-26T11:13:01.791Z,9.33
2019-05-26T11:15:31.001Z,13.20
2019-05-26T11:18:00.307Z,8.43
2019-05-26T11:20:29.712Z,8.80
2019-05-26T11:22:58.988Z,11.00
2019-05-26T11:25:28.712Z,10.97
2019-05-26T11:27:58.468Z,8.80
2019-05-26T11:30:28.509Z,14.27
2019-05-26T11:32:59.672Z,8.37
2019-05-26T11:35:30.334Z,9.57
2019-05-26T11:37:59.695Z,8.20
2019-05-26T11:40:28.904Z,10.60
2019-05-26T11:42:58.108Z,7.93
2019-05-26T11:45:27.328Z,7.13
2019-05-26T11:47:57.087Z,8.67
2019-05-26T11:50:26.430Z,7.33
2019-05-26T11:52:55.998Z,10.03
2019-05-26T11:55:27.803Z,8.20
2019-05-26T11:57:58.136Z,10.00
2019-05-26T12:00:27.827Z,6.17
2019-05-26T12:03:00.366Z,7.40
2019-05-26T12:05:28.819Z,6.87
2019-05-26T12:07:58.473Z,7.90
2019-05-26T12:10:29.245Z,7.73
2019-05-26T12:12:58.970Z,8.07
2019-05-26T12:15:28.369Z,11.33
2019-05-26T12:17:57.944Z,8.63
2019-05-26T12:20:28.699Z,8.53
2019-05-26T12:22:58.466Z,7.27
2019-05-26T12:25:28.131Z,15.93
2019-05-26T12:27:57.811Z,6.23
2019-05-26T12:30:27.464Z,6.63
2019-05-26T12:32:57.102Z,6.13
2019-05-26T12:35:28.544Z,5.83
2019-05-26T12:37:59.052Z,5.77
2019-05-26T12:40:28.523Z,6.53
2019-05-26T12:42:57.810Z,7.00
2019-05-26T12:45:27.359Z,5.40
2019-05-26T12:47:56.699Z,9.23
2019-05-26T12:50:25.920Z,6.37
2019-05-26T12:52:55.339Z,5.83
2019-05-26T12:55:24.587Z,5.63
2019-05-26T12:57:53.874Z,6.40
2019-05-26T13:00:23.190Z,6.40
2019-05-26T13:02:52.563Z,10.73
2019-05-26T13:05:21.902Z,19.80
2019-05-26T13:07:51.169Z,6.63
2019-05-26T13:10:20.526Z,5.87
2019-05-26T13:12:50.810Z,5.77
2019-05-26T13:15:20.190Z,6.23
2019-05-26T13:17:49.423Z,5.30
2019-05-26T13:20:18.913Z,9.40
2019-05-26T13:22:48.192Z,8.77
2019-05-26T13:25:17.615Z,7.47
2019-05-26T13:27:46.823Z,4.53
2019-05-26T13:30:17.654Z,5.67
2019-05-26T13:32:46.910Z,5.40
2019-05-26T13:35:16.179Z,6.70
2019-05-26T13:37:45.421Z,4.83
2019-05-26T13:40:15.656Z,5.00
2019-05-26T13:42:44.888Z,7.33
2019-05-26T13:45:22.432Z,8.00
2019-05-26T13:47:46.827Z,8.07
2019-05-26T13:50:17.134Z,5.53
2019-05-26T13:52:46.929Z,6.30
2019-05-26T13:55:16.494Z,8.90
2019-05-26T13:57:49.158Z,6.47
2019-05-26T14:00:17.093Z,5.43
2019-05-26T14:02:46.647Z,6.70
2019-05-26T14:05:16.148Z,5.67
2019-05-26T14:07:45.368Z,4.87
2019-05-26T14:10:16.106Z,7.60
2019-05-26T14:12:45.299Z,4.77
2019-05-26T14:15:14.747Z,5.00
2019-05-26T14:17:43.946Z,7.17
2019-05-26T14:20:13.276Z,4.53
2019-05-26T14:22:42.532Z,4.33
2019-05-26T14:25:14.921Z,4.00
2019-05-26T14:27:42.671Z,6.17
2019-05-26T14:30:12.338Z,4.93
2019-05-26T14:32:41.574Z,6.33
2019-05-26T14:35:10.860Z,4.47
2019-05-26T14:37:40.074Z,4.63
2019-05-26T14:40:09.858Z,3.70
2019-05-26T14:42:39.970Z,5.37
2019-05-26T14:45:09.561Z,7.90
2019-05-26T14:47:38.917Z,6.10
2019-05-26T14:50:08.653Z,4.10
2019-05-26T14:52:37.944Z,4.47
2019-05-26T14:55:07.450Z,4.63
2019-05-26T14:57:37.442Z,4.07
2019-05-26T15:00:09.021Z,4.57
2019-05-26T15:02:38.391Z,4.80
2019-05-26T15:05:08.361Z,5.37
2019-05-26T15:07:37.735Z,7.07
2019-05-26T15:10:08.580Z,4.47
2019-05-26T15:12:38.001Z,14.93
2019-05-26T15:15:07.400Z,4.77
2019-05-26T15:17:36.831Z,3.37
2019-05-26T15:20:08.046Z,6.30
2019-05-26T15:22:37.663Z,5.03
2019-05-26T15:25:07.492Z,3.83
2019-05-26T15:27:37.121Z,5.47
2019-05-26T15:30:08.207Z,3.40
2019-05-26T15:32:37.496Z,8.47
2019-05-26T15:35:08.319Z,5.47
2019-05-26T15:37:37.990Z,3.73
2019-05-26T15:40:11.158Z,3.43
2019-05-26T15:42:41.227Z,4.03
2019-05-26T15:45:11.294Z,4.80
2019-05-26T15:47:40.830Z,5.43
2019-05-26T15:50:13.764Z,4.60
2019-05-26T15:52:43.197Z,5.10
2019-05-26T15:55:13.175Z,4.27
2019-05-26T15:57:43.016Z,5.80
2019-05-26T16:00:12.880Z,3.67
2019-05-26T16:02:42.884Z,7.60
2019-05-26T16:05:12.919Z,3.83
2019-05-26T16:07:42.571Z,6.20
2019-05-26T16:10:13.629Z,5.40
2019-05-26T16:12:43.278Z,3.97
2019-05-26T16:15:13.372Z,5.33
2019-05-26T16:17:43.027Z,4.13
2019-05-26T16:20:13.428Z,4.57
2019-05-26T16:22:43.176Z,4.17
2019-05-26T16:25:14.375Z,5.93
2019-05-26T16:27:44.048Z,6.30
2019-05-26T16:30:13.928Z,5.30
2019-05-26T16:32:43.586Z,4.60
2019-05-26T16:35:13.427Z,5.17
2019-05-26T16:37:43.074Z,7.10
2019-05-26T16:40:12.910Z,5.37
2019-05-26T16:42:42.612Z,4.73
2019-05-26T16:45:12.568Z,4.43
2019-05-26T16:47:42.665Z,5.37
2019-05-26T16:50:12.539Z,5.13
2019-05-26T16:52:42.200Z,5.10
2019-05-26T16:55:12.246Z,10.20
2019-05-26T16:57:41.610Z,7.00
2019-05-26T17:00:11.470Z,34.30
2019-05-26T17:02:41.061Z,7.57
2019-05-26T17:05:10.954Z,5.47
2019-05-26T17:07:40.520Z,6.00
2019-05-26T17:10:10.461Z,7.40
2019-05-26T17:12:39.768Z,6.97
2019-05-26T17:15:09.086Z,6.33
2019-05-26T17:17:38.431Z,4.87
2019-05-26T17:20:08.068Z,7.53
2019-05-26T17:22:37.456Z,59.97
2019-05-26T17:25:07.423Z,36.50
2019-05-26T17:27:36.829Z,8.00
2019-05-26T17:30:06.898Z,6.87
2019-05-26T17:32:36.211Z,5.40
2019-05-26T17:35:05.650Z,8.10
2019-05-26T17:37:34.996Z,6.70
2019-05-26T17:40:06.358Z,5.27
2019-05-26T17:42:35.815Z,9.60
2019-05-26T17:45:06.202Z,8.77
2019-05-26T17:47:35.987Z,9.40
2019-05-26T17:50:08.475Z,5.47
2019-05-26T17:52:37.758Z,5.73
2019-05-26T17:55:08.076Z,95.07
2019-05-26T17:57:37.454Z,6.27
2019-05-26T18:00:09.522Z,6.40
2019-05-26T18:02:38.811Z,9.23
2019-05-26T18:05:08.324Z,7.13
2019-05-26T18:07:37.854Z,6.73
2019-05-26T18:10:07.227Z,6.57
2019-05-26T18:12:36.894Z,11.00
2019-05-26T18:15:09.124Z,8.17
2019-05-26T18:17:46.914Z,8.80
2019-05-26T18:20:10.727Z,7.77
2019-05-26T18:22:40.401Z,6.57
2019-05-26T18:25:09.862Z,8.60
2019-05-26T18:27:40.830Z,11.05
2019-05-26T18:30:10.916Z,7.60
2019-05-26T18:32:41.631Z,6.60
2019-05-26T18:35:11.675Z,8.03
2019-05-26T18:37:41.073Z,6.07
2019-05-26T18:40:11.161Z,9.00
2019-05-26T18:42:40.792Z,8.37
2019-05-26T18:45:12.457Z,10.93
2019-05-26T18:47:41.739Z,8.60
2019-05-26T18:50:11.158Z,14.17
2019-05-26T18:52:40.402Z,12.27
2019-05-26T18:55:09.848Z,12.90
2019-05-26T18:57:39.395Z,11.80
2019-05-26T19:00:11.206Z,10.55
2019-05-26T19:02:41.735Z,8.60
2019-05-26T19:05:11.289Z,16.27
2019-05-26T19:07:41.225Z,11.05
2019-05-26T19:10:11.638Z,13.78
2019-05-26T19:12:41.366Z,24.90
2019-05-26T19:15:11.558Z,16.52
2019-05-26T19:17:41.571Z,14.90
2019-05-26T19:20:16.621Z,13.83
2019-05-26T19:22:43.655Z,15.48
2019-05-26T19:25:13.919Z,18.35
2019-05-26T19:27:43.890Z,16.95
2019-05-26T19:30:14.155Z,14.93
2019-05-26T19:32:44.135Z,27.65
2019-05-26T19:35:14.414Z,18.70
2019-05-26T19:37:44.762Z,17.20
2019-05-26T19:40:15.081Z,15.30
2019-05-26T19:42:45.135Z,12.60
2019-05-26T19:45:16.023Z,15.85
2019-05-26T19:47:46.005Z,18.87
2019-05-26T19:50:16.290Z,11.70
2019-05-26T19:52:49.541Z,14.00
2019-05-26T19:55:17.779Z,19.93
2019-05-26T19:57:48.590Z,16.52
2019-05-26T20:00:20.145Z,14.83
2019-05-26T20:02:50.269Z,18.07
2019-05-26T20:05:20.369Z,22.73
2019-05-26T20:07:49.992Z,17.83
2019-05-26T20:10:20.166Z,30.15
2019-05-26T20:12:50.207Z,21.23
2019-05-26T20:15:20.463Z,17.85
2019-05-26T20:17:50.729Z,22.17
2019-05-26T20:20:21.409Z,14.43
2019-05-26T20:22:51.528Z,20.00
2019-05-26T20:25:21.920Z,17.52
2019-05-26T20:27:51.897Z,14.78
2019-05-26T20:30:23.064Z,20.95
2019-05-26T20:32:53.631Z,17.67
2019-05-26T20:35:23.615Z,28.38
2019-05-26T20:37:53.655Z,19.82
2019-05-26T20:40:23.676Z,21.15
2019-05-26T20:42:53.615Z,18.20
2019-05-26T20:45:25.118Z,17.25
2019-05-26T20:47:55.085Z,20.02
2019-05-26T20:50:29.545Z,18.55
2019-05-26T20:52:57.720Z,19.95
2019-05-26T20:55:27.796Z,17.25
2019-05-26T20:57:57.809Z,24.98
2019-05-26T21:00:27.818Z,18.27
2019-05-26T21:02:57.947Z,15.83
2019-05-26T21:05:27.895Z,20.27
2019-05-26T21:07:57.930Z,22.65
2019-05-26T21:10:27.917Z,21.93
2019-05-26T21:12:58.012Z,22.25
2019-05-26T21:15:28.195Z,20.02
2019-05-26T21:17:58.151Z,24.50
2019-05-26T21:20:28.330Z,23.40
2019-05-26T21:22:58.309Z,24.37
2019-05-26T21:25:28.255Z,18.95
2019-05-26T21:27:58.299Z,23.05
2019-05-26T21:30:28.232Z,24.43
2019-05-26T21:32:59.243Z,22.27
2019-05-26T21:35:29.427Z,22.77
2019-05-26T21:37:59.430Z,23.50
2019-05-26T21:40:29.492Z,25.95
2019-05-26T21:42:59.822Z,22.32
2019-05-26T21:45:29.775Z,21.65
2019-05-26T21:48:00.321Z,22.50
2019-05-26T21:50:30.431Z,23.83
2019-05-26T21:53:00.430Z,26.52
2019-05-26T21:55:30.446Z,24.10
2019-05-26T21:58:00.482Z,21.10
2019-05-26T22:00:32.121Z,23.85
2019-05-26T22:03:02.644Z,25.08
2019-05-26T22:05:32.598Z,23.38
2019-05-26T22:08:02.542Z,22.77
2019-05-26T22:10:32.533Z,22.95
2019-05-26T22:13:02.465Z,21.05
2019-05-26T22:15:32.528Z,22.98
2019-05-26T22:18:02.552Z,22.87
2019-05-26T22:20:32.576Z,24.25
2019-05-26T22:23:02.605Z,24.92
2019-05-26T22:25:32.683Z,26.07
2019-05-26T22:28:02.712Z,21.62
2019-05-26T22:30:32.863Z,22.02
2019-05-26T22:33:02.845Z,21.10
2019-05-26T22:35:33.041Z,24.72
2019-05-26T22:38:03.052Z,23.12
2019-05-26T22:40:33.086Z,25.35
2019-05-26T22:43:03.087Z,21.42
2019-05-26T22:45:33.078Z,23.57
2019-05-26T22:48:02.755Z,22.73
2019-05-26T22:50:32.295Z,22.98
2019-05-26T22:53:01.867Z,21.20
2019-05-26T22:55:32.167Z,23.90
2019-05-26T22:58:02.125Z,24.00
2019-05-26T23:00:32.157Z,26.80
2019-05-26T23:03:02.156Z,26.35
2019-05-26T23:05:32.260Z,24.40
2019-05-26T23:08:02.285Z,23.45
2019-05-26T23:10:32.518Z,21.00
2019-05-26T23:13:02.571Z,23.27
2019-05-26T23:15:32.640Z,21.97
2019-05-26T23:18:02.600Z,24.20
2019-05-26T23:20:32.656Z,25.35
2019-05-26T23:23:02.695Z,24.47
2019-05-26T23:25:32.393Z,23.05
2019-05-26T23:28:01.917Z,22.22
2019-05-26T23:30:31.789Z,22.73
2019-05-26T23:33:01.834Z,24.90
2019-05-26T23:35:31.840Z,22.93
2019-05-26T23:38:01.939Z,25.97
2019-05-26T23:40:31.955Z,22.15
2019-05-26T23:43:02.105Z,25.20
2019-05-26T23:45:31.740Z,24.98
2019-05-26T23:48:02.657Z,23.30
2019-05-26T23:50:32.343Z,24.07
2019-05-26T23:53:01.886Z,23.45
2019-05-26T23:55:31.515Z,25.12
2019-05-26T23:58:01.384Z,21.82
